createdAt,value
2022-10-26T00:00:12.615Z,3.92
2022-10-26T00:02:39.258Z,5.40
2022-10-26T00:05:06.124Z,2.10
2022-10-26T00:07:32.827Z,2.63
2022-10-26T00:09:59.481Z,2.58
2022-10-26T00:12:25.960Z,3.42
2022-10-26T00:14:52.458Z,4.13
2022-10-26T00:17:18.952Z,3.95
2022-10-26T00:19:45.424Z,4.72
2022-10-26T00:22:12.024Z,3.05
2022-10-26T00:24:38.547Z,3.42
2022-10-26T00:27:05.035Z,3.88
2022-10-26T00:29:31.647Z,2.72
2022-10-26T00:31:58.172Z,3.05
2022-10-26T00:34:24.647Z,2.03
2022-10-26T00:36:51.059Z,3.33
2022-10-26T00:39:17.571Z,3.90
2022-10-26T00:41:44.212Z,4.93
2022-10-26T00:44:34.485Z,4.72
2022-10-26T00:47:04.561Z,4.53
2022-10-26T00:49:31.101Z,3.35
2022-10-26T00:51:57.598Z,5.72
2022-10-26T00:54:24.065Z,6.80
2022-10-26T00:56:52.144Z,2.70
2022-10-26T00:59:18.734Z,4.70
2022-10-26T01:01:46.727Z,2.88
2022-10-26T01:04:14.251Z,4.10
2022-10-26T01:06:41.645Z,2.50
2022-10-26T01:09:08.220Z,3.05
2022-10-26T01:11:34.661Z,2.40
2022-10-26T01:14:02.230Z,3.50
2022-10-26T01:16:51.292Z,2.60
2022-10-26T01:19:23.806Z,2.35
2022-10-26T01:21:56.733Z,3.88
2022-10-26T01:24:42.026Z,5.13
2022-10-26T01:27:14.664Z,4.05
2022-10-26T01:29:59.614Z,2.53
2022-10-26T01:32:28.978Z,2.80
2022-10-26T01:35:00.125Z,2.30
2022-10-26T01:37:30.279Z,2.17
2022-10-26T01:40:00.291Z,2.10
2022-10-26T01:42:27.982Z,2.95
2022-10-26T01:44:57.721Z,3.75
2022-10-26T01:47:24.928Z,3.83
2022-10-26T01:49:53.879Z,2.08
2022-10-26T01:52:20.609Z,2.33
2022-10-26T01:54:47.107Z,1.60
2022-10-26T01:57:15.932Z,2.35
2022-10-26T01:59:42.421Z,3.40
2022-10-26T02:02:18.603Z,2.78
2022-10-26T02:04:47.875Z,2.53
2022-10-26T02:07:21.053Z,3.88
2022-10-26T02:09:59.708Z,3.70
2022-10-26T02:12:44.748Z,1.95
2022-10-26T02:15:14.202Z,1.45
2022-10-26T02:17:43.791Z,2.20
2022-10-26T02:20:13.860Z,1.92
2022-10-26T02:22:43.293Z,2.90
2022-10-26T02:25:12.142Z,3.03
2022-10-26T02:27:42.596Z,3.53
2022-10-26T02:30:10.767Z,2.67
2022-10-26T02:32:39.000Z,2.00
2022-10-26T02:35:05.807Z,1.50
2022-10-26T02:37:33.204Z,1.83
2022-10-26T02:40:01.731Z,4.18
2022-10-26T02:42:28.473Z,2.08
2022-10-26T02:44:57.924Z,1.75
2022-10-26T02:47:26.218Z,2.80
2022-10-26T02:49:53.272Z,2.25
2022-10-26T02:52:42.586Z,1.55
2022-10-26T02:55:12.524Z,2.35
2022-10-26T02:57:40.899Z,1.83
2022-10-26T03:02:47.638Z,2.33
2022-10-26T03:05:15.197Z,2.33
2022-10-26T03:07:41.619Z,1.45
2022-10-26T03:10:08.335Z,1.98
2022-10-26T03:12:34.863Z,1.50
2022-10-26T03:15:01.411Z,2.92
2022-10-26T03:17:27.853Z,1.88
2022-10-26T03:19:54.783Z,1.75
2022-10-26T03:22:21.329Z,1.40
2022-10-26T03:24:47.811Z,1.70
2022-10-26T03:27:14.817Z,1.50
2022-10-26T03:29:41.359Z,1.88
2022-10-26T03:32:08.101Z,1.10
2022-10-26T03:34:34.570Z,2.35
2022-10-26T03:37:01.088Z,1.65
2022-10-26T03:39:27.769Z,2.38
2022-10-26T03:41:55.492Z,3.03
2022-10-26T03:44:22.349Z,2.88
2022-10-26T03:46:49.029Z,1.30
2022-10-26T03:49:15.610Z,2.05
2022-10-26T03:51:42.142Z,1.40
2022-10-26T03:54:08.739Z,2.33
2022-10-26T03:56:35.209Z,1.50
2022-10-26T03:59:01.767Z,1.50
2022-10-26T04:01:28.452Z,1.23
2022-10-26T04:03:55.001Z,1.70
2022-10-26T04:06:21.695Z,1.42
2022-10-26T04:08:48.214Z,1.40
2022-10-26T04:11:14.852Z,1.80
2022-10-26T04:13:41.336Z,1.85
2022-10-26T04:16:08.038Z,1.35
2022-10-26T04:18:34.618Z,1.45
2022-10-26T04:21:02.111Z,1.38
2022-10-26T04:23:28.645Z,1.20
2022-10-26T04:25:55.255Z,1.38
2022-10-26T04:28:21.809Z,3.75
2022-10-26T04:30:48.630Z,2.22
2022-10-26T04:33:15.133Z,1.48
2022-10-26T04:35:43.030Z,3.55
2022-10-26T04:38:10.074Z,1.30
2022-10-26T04:40:37.676Z,1.45
2022-10-26T04:43:04.212Z,1.42
2022-10-26T04:45:33.273Z,1.58
2022-10-26T04:48:00.610Z,2.60
2022-10-26T04:50:28.483Z,3.22
2022-10-26T04:52:55.185Z,1.33
2022-10-26T04:55:21.634Z,1.02
2022-10-26T04:57:48.448Z,2.28
2022-10-26T05:00:15.389Z,1.98
2022-10-26T05:02:42.049Z,1.40
2022-10-26T05:05:11.255Z,1.40
2022-10-26T05:07:40.821Z,1.83
2022-10-26T05:10:07.593Z,1.25
2022-10-26T05:12:34.132Z,1.67
2022-10-26T05:15:02.956Z,2.00
2022-10-26T05:17:31.582Z,1.40
2022-10-26T05:20:00.326Z,1.20
2022-10-26T05:22:26.858Z,1.67
2022-10-26T05:24:53.355Z,1.83
2022-10-26T05:27:19.769Z,1.25
2022-10-26T05:29:46.353Z,1.15
2022-10-26T05:32:12.863Z,1.40
2022-10-26T05:34:40.847Z,1.60
2022-10-26T05:37:08.185Z,2.58
2022-10-26T05:39:34.606Z,1.17
2022-10-26T05:42:01.096Z,1.40
2022-10-26T05:44:27.833Z,1.30
2022-10-26T05:46:54.383Z,1.52
2022-10-26T05:49:20.888Z,1.35
2022-10-26T05:51:47.335Z,1.33
2022-10-26T05:54:14.162Z,2.10
2022-10-26T05:56:41.343Z,1.50
2022-10-26T05:59:11.987Z,2.28
2022-10-26T06:01:57.177Z,2.53
2022-10-26T06:04:29.686Z,1.23
2022-10-26T06:06:56.714Z,1.42
2022-10-26T06:09:23.377Z,1.77
2022-10-26T06:14:21.630Z,1.45
2022-10-26T06:16:55.282Z,1.48
2022-10-26T06:19:21.951Z,1.70
2022-10-26T06:22:08.885Z,1.98
2022-10-26T06:24:48.404Z,3.17
2022-10-26T06:27:19.523Z,1.20
2022-10-26T06:29:54.633Z,1.27
2022-10-26T06:32:22.668Z,2.25
2022-10-26T06:34:49.987Z,1.30
2022-10-26T06:37:17.125Z,0.90
2022-10-26T06:39:48.821Z,1.15
2022-10-26T06:42:18.044Z,2.17
2022-10-26T06:44:44.652Z,1.30
2022-10-26T06:47:31.327Z,1.30
2022-10-26T06:50:11.659Z,1.30
2022-10-26T06:53:01.232Z,1.65
2022-10-26T06:55:28.967Z,1.85
2022-10-26T06:57:56.022Z,3.30
2022-10-26T07:00:23.602Z,3.88
2022-10-26T07:02:50.411Z,5.10
2022-10-26T07:05:17.235Z,6.90
2022-10-26T07:07:45.883Z,2.90
2022-10-26T07:10:13.552Z,9.90
2022-10-26T07:12:40.148Z,2.70
2022-10-26T07:17:48.682Z,2.45
2022-10-26T07:20:19.317Z,2.08
2022-10-26T07:22:45.850Z,2.88
2022-10-26T07:25:12.757Z,2.65
2022-10-26T07:27:39.250Z,2.60
2022-10-26T07:30:06.159Z,2.65
2022-10-26T07:32:33.143Z,3.83
2022-10-26T07:34:59.626Z,4.63
2022-10-26T07:37:26.052Z,8.85
2022-10-26T07:39:52.540Z,8.68
2022-10-26T07:42:18.990Z,2.55
2022-10-26T07:44:45.903Z,4.68
2022-10-26T07:47:12.960Z,5.82
2022-10-26T07:49:39.752Z,4.22
2022-10-26T07:52:06.180Z,7.97
2022-10-26T07:54:32.945Z,10.70
2022-10-26T07:56:59.519Z,5.05
2022-10-26T07:59:26.077Z,4.75
2022-10-26T08:01:53.061Z,10.88
2022-10-26T08:04:19.511Z,12.68
2022-10-26T08:06:47.207Z,6.35
2022-10-26T08:09:13.642Z,9.18
2022-10-26T08:11:40.144Z,3.55
2022-10-26T08:14:06.610Z,2.45
2022-10-26T08:16:34.932Z,1.73
2022-10-26T08:19:01.395Z,3.03
2022-10-26T08:21:36.560Z,2.00
2022-10-26T08:24:06.376Z,3.47
2022-10-26T08:26:32.850Z,3.45
2022-10-26T08:28:59.327Z,3.67
2022-10-26T08:31:25.897Z,3.08
2022-10-26T08:33:52.420Z,3.08
2022-10-26T08:36:23.036Z,3.53
2022-10-26T08:38:49.634Z,3.63
2022-10-26T08:41:16.425Z,1.95
2022-10-26T08:43:45.853Z,2.92
2022-10-26T08:46:17.615Z,3.30
2022-10-26T08:49:00.587Z,2.67
2022-10-26T08:51:30.617Z,4.60
2022-10-26T08:53:58.654Z,4.57
2022-10-26T08:56:26.496Z,3.08
2022-10-26T08:58:57.603Z,2.70
2022-10-26T09:01:24.327Z,1.80
2022-10-26T09:03:50.982Z,1.70
2022-10-26T09:06:17.590Z,3.42
2022-10-26T09:08:50.314Z,3.25
2022-10-26T09:11:22.916Z,3.75
2022-10-26T09:14:03.746Z,4.63
2022-10-26T09:16:48.790Z,3.33
2022-10-26T09:19:27.511Z,2.38
2022-10-26T09:22:04.281Z,4.50
2022-10-26T09:24:30.731Z,4.38
2022-10-26T09:29:44.570Z,3.50
2022-10-26T09:32:44.661Z,6.28
2022-10-26T09:35:31.409Z,4.38
2022-10-26T09:38:13.741Z,5.10
2022-10-26T09:40:48.382Z,4.47
2022-10-26T09:43:18.540Z,7.97
2022-10-26T09:45:47.370Z,2.92
2022-10-26T09:48:17.231Z,6.57
2022-10-26T09:50:46.981Z,4.22
2022-10-26T09:53:13.434Z,8.07
2022-10-26T09:55:41.694Z,6.90
2022-10-26T09:58:13.126Z,4.05
2022-10-26T10:00:40.877Z,8.80
2022-10-26T10:03:18.614Z,9.27
2022-10-26T10:05:51.208Z,8.38
2022-10-26T10:08:25.287Z,10.45
2022-10-26T10:11:00.975Z,5.95
2022-10-26T10:13:31.736Z,5.43
2022-10-26T10:16:01.574Z,5.97
2022-10-26T10:18:28.526Z,46.22
2022-10-26T10:20:56.275Z,9.95
2022-10-26T10:23:33.082Z,5.30
2022-10-26T10:26:00.915Z,6.68
2022-10-26T10:28:27.907Z,8.02
2022-10-26T10:30:57.400Z,6.70
2022-10-26T10:33:31.666Z,8.98
2022-10-26T10:35:58.426Z,6.40
2022-10-26T10:38:24.950Z,4.45
2022-10-26T10:40:53.445Z,7.88
2022-10-26T10:43:20.036Z,10.32
2022-10-26T10:45:53.667Z,7.80
2022-10-26T10:48:24.296Z,8.52
2022-10-26T10:50:55.665Z,4.75
2022-10-26T10:53:27.508Z,5.45
2022-10-26T10:56:15.220Z,5.95
2022-10-26T10:59:08.376Z,6.45
2022-10-26T11:01:48.131Z,6.13
2022-10-26T11:04:35.496Z,13.65
2022-10-26T11:07:03.787Z,18.63
2022-10-26T11:09:32.240Z,14.20
2022-10-26T11:12:01.994Z,13.55
2022-10-26T11:14:30.745Z,12.80
2022-10-26T11:17:02.838Z,11.23
2022-10-26T11:19:31.095Z,11.38
2022-10-26T11:21:57.605Z,7.82
2022-10-26T11:24:29.788Z,5.22
2022-10-26T11:27:02.185Z,11.52
2022-10-26T11:29:28.777Z,6.93
2022-10-26T11:32:01.185Z,10.48
2022-10-26T11:34:30.856Z,7.05
2022-10-26T11:37:17.545Z,8.35
2022-10-26T11:40:00.865Z,5.70
2022-10-26T11:42:27.335Z,8.02
2022-10-26T11:44:57.256Z,4.13
2022-10-26T11:47:38.987Z,5.53
2022-10-26T11:50:17.382Z,7.15
2022-10-26T11:52:50.168Z,5.95
2022-10-26T11:55:17.496Z,4.88
2022-10-26T11:57:46.711Z,9.38
2022-10-26T12:00:13.155Z,9.88
2022-10-26T12:05:20.055Z,6.25
2022-10-26T12:08:06.756Z,6.57
2022-10-26T12:10:34.656Z,6.43
2022-10-26T12:13:11.225Z,5.63
2022-10-26T12:16:02.833Z,7.70
2022-10-26T12:18:53.970Z,5.40
2022-10-26T12:21:20.001Z,5.85
2022-10-26T12:24:21.756Z,6.30
2022-10-26T12:27:01.317Z,6.35
2022-10-26T12:29:37.057Z,6.95
2022-10-26T12:32:05.345Z,5.90
2022-10-26T12:34:32.070Z,5.47
2022-10-26T12:36:58.675Z,6.50
2022-10-26T12:39:32.605Z,4.97
2022-10-26T12:42:19.336Z,7.85
2022-10-26T12:44:45.809Z,7.63
2022-10-26T12:47:30.273Z,3.97
2022-10-26T12:50:09.362Z,5.47
2022-10-26T12:52:38.815Z,5.32
2022-10-26T12:55:20.166Z,5.93
2022-10-26T12:57:49.378Z,6.00
2022-10-26T13:00:22.581Z,5.32
2022-10-26T13:03:07.838Z,7.53
2022-10-26T13:05:40.517Z,6.00
2022-10-26T13:08:08.248Z,5.13
2022-10-26T13:10:35.679Z,6.15
2022-10-26T13:13:05.415Z,4.93
2022-10-26T13:15:36.285Z,6.57
2022-10-26T13:18:08.995Z,6.55
2022-10-26T13:20:36.856Z,6.18
2022-10-26T13:23:23.597Z,8.70
2022-10-26T13:26:02.516Z,5.55
2022-10-26T13:28:38.417Z,6.10
2022-10-26T13:31:24.899Z,5.30
2022-10-26T13:33:52.475Z,6.55
2022-10-26T13:36:37.726Z,7.25
2022-10-26T13:39:17.275Z,8.98
2022-10-26T13:41:45.508Z,7.32
2022-10-26T13:44:18.318Z,6.50
2022-10-26T13:46:51.895Z,4.80
2022-10-26T13:49:20.516Z,5.55
2022-10-26T13:51:49.177Z,5.05
2022-10-26T13:54:25.597Z,5.43
2022-10-26T13:57:10.663Z,4.88
2022-10-26T13:59:39.027Z,6.05
2022-10-26T14:02:14.616Z,6.57
2022-10-26T14:04:41.108Z,6.82
2022-10-26T14:07:12.846Z,6.22
2022-10-26T14:09:39.376Z,5.05
2022-10-26T14:12:05.956Z,5.78
2022-10-26T14:14:34.227Z,6.07
2022-10-26T14:17:00.925Z,5.75
2022-10-26T14:19:27.487Z,7.47
2022-10-26T14:21:54.616Z,5.88
2022-10-26T14:24:24.853Z,6.95
2022-10-26T14:27:02.366Z,7.80
2022-10-26T14:29:31.776Z,6.88
2022-10-26T14:31:58.266Z,5.93
2022-10-26T14:34:24.907Z,6.68
2022-10-26T14:37:04.365Z,6.97
2022-10-26T14:39:31.037Z,5.95
2022-10-26T14:41:58.335Z,6.40
2022-10-26T14:44:25.299Z,7.00
2022-10-26T14:46:51.819Z,6.00
2022-10-26T14:49:20.115Z,11.50
2022-10-26T14:51:46.856Z,6.43
2022-10-26T14:54:23.827Z,7.85
2022-10-26T14:56:50.479Z,9.65
2022-10-26T14:59:22.820Z,7.68
2022-10-26T15:01:54.010Z,10.85
2022-10-26T15:04:26.665Z,7.38
2022-10-26T15:06:54.823Z,7.65
2022-10-26T15:09:34.861Z,9.65
2022-10-26T15:12:05.577Z,9.25
2022-10-26T15:14:32.246Z,10.70
2022-10-26T15:17:02.716Z,15.05
2022-10-26T15:19:31.070Z,11.73
2022-10-26T15:21:58.036Z,9.13
2022-10-26T15:24:33.272Z,23.42
2022-10-26T15:27:06.176Z,37.13
2022-10-26T15:29:46.289Z,71.45
2022-10-26T15:32:20.946Z,14.27
2022-10-26T15:35:05.448Z,15.82
2022-10-26T15:37:31.942Z,12.13
2022-10-26T15:40:00.095Z,17.95
2022-10-26T15:42:27.096Z,20.92
2022-10-26T15:44:53.546Z,14.38
2022-10-26T15:47:20.355Z,12.93
2022-10-26T15:49:47.345Z,17.33
2022-10-26T15:52:14.236Z,12.15
2022-10-26T15:54:40.846Z,12.52
2022-10-26T15:57:10.657Z,16.73
2022-10-26T15:59:37.215Z,16.02
2022-10-26T16:02:12.587Z,19.35
2022-10-26T16:04:39.198Z,20.20
2022-10-26T16:07:07.515Z,19.95
2022-10-26T16:09:34.016Z,20.98
2022-10-26T16:12:00.502Z,17.83
2022-10-26T16:14:30.004Z,21.02
2022-10-26T16:16:59.686Z,22.58
2022-10-26T16:19:30.968Z,20.52
2022-10-26T16:21:58.401Z,16.42
2022-10-26T16:24:25.144Z,16.95
2022-10-26T16:26:51.706Z,15.00
2022-10-26T16:29:19.446Z,17.73
2022-10-26T16:31:46.296Z,23.75
2022-10-26T16:34:12.855Z,17.02
2022-10-26T16:36:39.404Z,18.00
2022-10-26T16:39:06.307Z,19.02
2022-10-26T16:41:33.207Z,16.98
2022-10-26T16:43:59.743Z,16.00
2022-10-26T16:46:26.394Z,18.80
2022-10-26T16:48:52.917Z,15.85
2022-10-26T16:51:27.065Z,14.20
2022-10-26T16:53:55.028Z,18.63
2022-10-26T16:56:22.658Z,16.08
2022-10-26T16:58:49.410Z,17.08
2022-10-26T17:01:19.165Z,16.63
2022-10-26T17:03:46.527Z,13.95
2022-10-26T17:06:13.918Z,14.88
2022-10-26T17:08:40.824Z,14.45
2022-10-26T17:11:09.006Z,14.77
2022-10-26T17:13:38.976Z,15.30
2022-10-26T17:16:07.017Z,17.10
2022-10-26T17:18:33.667Z,16.88
2022-10-26T17:21:00.247Z,14.35
2022-10-26T17:23:26.946Z,12.18
2022-10-26T17:25:53.566Z,11.98
2022-10-26T17:28:20.127Z,12.00
2022-10-26T17:30:46.749Z,16.25
2022-10-26T17:33:13.536Z,12.85
2022-10-26T17:35:40.426Z,11.75
2022-10-26T17:38:06.980Z,15.40
2022-10-26T17:40:33.723Z,12.57
2022-10-26T17:43:00.646Z,14.43
2022-10-26T17:45:27.186Z,12.35
2022-10-26T17:47:54.076Z,13.23
2022-10-26T17:50:20.789Z,10.98
2022-10-26T17:52:47.575Z,11.18
2022-10-26T17:55:14.171Z,11.43
2022-10-26T17:57:40.863Z,11.98
2022-10-26T18:00:07.867Z,11.10
2022-10-26T18:02:37.701Z,12.05
2022-10-26T18:05:06.924Z,13.60
2022-10-26T18:07:34.648Z,12.02
2022-10-26T18:10:14.066Z,12.10
2022-10-26T18:12:48.644Z,11.25
2022-10-26T18:15:15.727Z,11.10
2022-10-26T18:17:42.964Z,12.88
2022-10-26T18:20:09.695Z,12.70
2022-10-26T18:22:36.244Z,12.27
2022-10-26T18:25:02.905Z,11.48
2022-10-26T18:27:30.179Z,12.25
2022-10-26T18:29:56.887Z,14.88
2022-10-26T18:32:23.520Z,11.85
2022-10-26T18:34:50.168Z,15.30
2022-10-26T18:37:16.694Z,14.98
2022-10-26T18:39:43.344Z,20.65
2022-10-26T18:42:10.919Z,14.93
2022-10-26T18:44:38.955Z,12.50
2022-10-26T18:47:05.992Z,12.60
2022-10-26T18:49:34.313Z,13.88
2022-10-26T18:52:04.081Z,9.80
2022-10-26T18:54:31.863Z,10.48
2022-10-26T18:56:59.681Z,15.52
2022-10-26T18:59:26.457Z,14.13
2022-10-26T19:01:53.617Z,15.73
2022-10-26T19:04:21.403Z,13.25
2022-10-26T19:06:50.030Z,13.00
2022-10-26T19:09:18.222Z,14.05
2022-10-26T19:11:46.110Z,13.52
2022-10-26T19:14:14.295Z,12.00
2022-10-26T19:16:46.823Z,11.48
2022-10-26T19:19:15.409Z,15.10
2022-10-26T19:21:42.739Z,17.75
2022-10-26T19:24:13.849Z,11.05
2022-10-26T19:26:43.730Z,14.07
2022-10-26T19:29:15.230Z,13.85
2022-10-26T19:31:43.028Z,12.52
2022-10-26T19:34:13.409Z,11.48
2022-10-26T19:36:45.314Z,10.82
2022-10-26T19:39:13.821Z,13.65
2022-10-26T19:41:41.110Z,10.30
2022-10-26T19:44:20.714Z,15.25
2022-10-26T19:46:49.451Z,12.35
2022-10-26T19:49:18.978Z,11.90
2022-10-26T19:51:48.361Z,14.52
2022-10-26T19:54:15.202Z,9.88
2022-10-26T19:56:41.951Z,14.43
2022-10-26T19:59:11.446Z,9.70
2022-10-26T20:01:41.141Z,12.25
2022-10-26T20:04:09.151Z,10.85
2022-10-26T20:06:35.845Z,10.18
2022-10-26T20:09:03.007Z,10.00
2022-10-26T20:11:32.587Z,9.63
2022-10-26T20:13:59.326Z,10.27
2022-10-26T20:16:25.888Z,9.93
2022-10-26T20:18:52.396Z,12.63
2022-10-26T20:21:19.141Z,10.80
2022-10-26T20:23:45.636Z,10.05
2022-10-26T20:26:18.923Z,9.82
2022-10-26T20:28:47.241Z,10.50
2022-10-26T20:31:14.131Z,10.25
2022-10-26T20:33:40.749Z,10.25
2022-10-26T20:36:07.593Z,11.30
2022-10-26T20:38:34.222Z,12.02
2022-10-26T20:41:02.666Z,11.35
2022-10-26T20:43:31.471Z,12.32
2022-10-26T20:45:58.349Z,12.68
2022-10-26T20:48:25.002Z,12.35
2022-10-26T20:51:03.765Z,12.05
2022-10-26T20:53:30.361Z,12.90
2022-10-26T20:56:01.471Z,11.27
2022-10-26T20:58:34.298Z,12.77
2022-10-26T21:01:02.176Z,12.50
2022-10-26T21:03:28.919Z,11.98
2022-10-26T21:05:56.071Z,10.93
2022-10-26T21:08:22.723Z,12.38
2022-10-26T21:10:49.881Z,10.05
2022-10-26T21:13:16.632Z,11.55
2022-10-26T21:15:43.371Z,12.68
2022-10-26T21:18:10.167Z,12.30
2022-10-26T21:20:36.869Z,12.55
2022-10-26T21:23:03.559Z,11.98
2022-10-26T21:25:30.121Z,11.23
2022-10-26T21:27:57.462Z,11.27
2022-10-26T21:30:24.877Z,12.02
2022-10-26T21:32:52.051Z,12.48
2022-10-26T21:35:19.151Z,12.77
2022-10-26T21:37:46.081Z,9.93
2022-10-26T21:40:13.304Z,13.23
2022-10-26T21:42:40.103Z,11.85
2022-10-26T21:45:07.318Z,10.77
2022-10-26T21:47:34.070Z,11.88
2022-10-26T21:50:00.797Z,12.68
2022-10-26T21:52:27.500Z,10.07
2022-10-26T21:54:54.000Z,10.75
2022-10-26T21:57:20.938Z,10.95
2022-10-26T21:59:47.545Z,11.05
2022-10-26T22:02:14.145Z,10.32
2022-10-26T22:04:40.953Z,11.55
2022-10-26T22:07:07.650Z,10.07
2022-10-26T22:09:40.629Z,11.60
2022-10-26T22:12:16.131Z,10.50
2022-10-26T22:14:42.650Z,10.02
2022-10-26T22:17:09.191Z,10.55
2022-10-26T22:19:35.823Z,12.68
2022-10-26T22:22:02.421Z,10.38
2022-10-26T22:24:28.876Z,10.13
2022-10-26T22:26:55.413Z,9.23
2022-10-26T22:29:21.991Z,11.45
2022-10-26T22:31:49.641Z,10.95
2022-10-26T22:34:16.596Z,11.88
2022-10-26T22:36:43.365Z,11.82
2022-10-26T22:39:09.981Z,10.85
2022-10-26T22:41:36.560Z,12.25
2022-10-26T22:44:03.208Z,11.30
2022-10-26T22:46:29.862Z,11.05
2022-10-26T22:48:58.003Z,11.30
2022-10-26T22:51:25.482Z,11.73
2022-10-26T22:53:55.981Z,10.48
2022-10-26T22:56:23.571Z,11.68
2022-10-26T22:58:52.018Z,12.63
2022-10-26T23:01:19.692Z,8.98
2022-10-26T23:03:46.434Z,10.73
2022-10-26T23:06:14.290Z,10.73
2022-10-26T23:08:41.167Z,11.57
2022-10-26T23:11:09.126Z,10.95
2022-10-26T23:13:35.887Z,11.43
2022-10-26T23:16:09.729Z,11.23
2022-10-26T23:18:36.530Z,10.30
2022-10-26T23:21:04.130Z,11.18
2022-10-26T23:23:31.081Z,12.05
2022-10-26T23:26:01.347Z,12.35
2022-10-26T23:28:28.141Z,10.65
2022-10-26T23:30:54.742Z,10.45
2022-10-26T23:33:21.354Z,11.63
2022-10-26T23:35:47.972Z,9.80
2022-10-26T23:38:14.631Z,10.32
2022-10-26T23:40:41.319Z,10.60
2022-10-26T23:43:07.781Z,10.27
2022-10-26T23:45:34.299Z,10.15
2022-10-26T23:48:00.848Z,11.20
2022-10-26T23:50:27.778Z,12.00
2022-10-26T23:52:54.351Z,10.68
2022-10-26T23:55:20.965Z,10.48
2022-10-26T23:57:47.983Z,9.60
